Time;durP1;ratioP1;P1;durP2;ratioP2;P2;SDS_P1;SDS_P2;PMS_P1;PMS_P2;Temp;Humidity;BMP_temperature;BMP_pressure;BME280_temperature;BME280_humidity;BME280_pressure;Samples;Min_cycle;Max_cycle;Signal;HPM_P1;HPM_P2
2022/11/15 00:00:50;;;;;;;14.87;13.77;;;8.50;99.90;;;;;;5076432;28;20638;-81
2022/11/15 00:03:17;;;;;;;12.00;11.00;;;8.50;99.90;;;;;;5078263;28;20213;-81
2022/11/15 00:05:43;;;;;;;8.77;7.97;;;8.50;99.90;;;;;;5079327;28;20268;-80
2022/11/15 00:08:09;;;;;;;14.77;10.70;;;8.40;99.90;;;;;;5076623;28;20178;-81
2022/11/15 00:10:35;;;;;;;12.57;11.23;;;8.40;99.90;;;;;;5077306;28;20264;-81
2022/11/15 00:13:05;;;;;;;10.37;9.27;;;8.40;99.90;;;;;;5076052;28;20218;-81
2022/11/15 00:15:31;;;;;;;9.63;8.80;;;8.40;99.90;;;;;;5076954;28;20638;-81
2022/11/15 00:17:57;;;;;;;12.80;8.63;;;8.50;99.90;;;;;;5076176;28;20180;-81
2022/11/15 00:20:22;;;;;;;9.13;8.13;;;8.50;99.90;;;;;;5076832;28;20191;-81
2022/11/15 00:22:49;;;;;;;8.70;7.97;;;8.50;99.90;;;;;;5076801;28;20202;-80
2022/11/15 00:25:14;;;;;;;9.50;8.40;;;8.40;99.90;;;;;;5076656;28;20197;-81
2022/11/15 00:27:40;;;;;;;12.47;11.47;;;8.50;99.90;;;;;;5075807;28;20200;-81
2022/11/15 00:30:06;;;;;;;13.60;12.20;;;8.50;99.90;;;;;;5063241;28;20748;-81
2022/11/15 00:32:32;;;;;;;13.43;12.40;;;8.40;99.90;;;;;;5055706;28;20175;-81
2022/11/15 00:34:58;;;;;;;14.67;13.17;;;8.50;99.90;;;;;;5056321;28;20204;-81
2022/11/15 00:37:24;;;;;;;14.47;13.30;;;8.40;99.90;;;;;;5054884;28;20247;-81
2022/11/15 00:39:50;;;;;;;19.13;17.27;;;8.40;99.90;;;;;;5055495;28;20192;-81
2022/11/15 00:42:15;;;;;;;17.70;16.20;;;8.40;99.90;;;;;;5056615;28;20186;-80
2022/11/15 00:44:41;;;;;;;20.27;19.00;;;8.40;99.90;;;;;;5070322;28;20214;-81
2022/11/15 00:47:07;;;;;;;23.70;22.03;;;8.40;99.90;;;;;;5058295;28;20178;-81
2022/11/15 00:49:33;;;;;;;26.37;24.67;;;8.40;99.90;;;;;;5060096;28;20222;-81
2022/11/15 00:51:58;;;;;;;27.77;25.97;;;8.50;99.90;;;;;;5074390;28;20199;-80
2022/11/15 00:54:24;;;;;;;22.37;20.97;;;8.40;99.90;;;;;;5077665;28;20190;-79
2022/11/15 00:56:50;;;;;;;21.33;19.87;;;8.40;99.90;;;;;;5080375;28;20174;-80
2022/11/15 00:59:15;;;;;;;18.33;16.93;;;8.40;99.90;;;;;;5078803;28;20326;-81
2022/11/15 01:01:41;;;;;;;15.57;14.47;;;8.40;99.90;;;;;;5091945;28;20433;-80
2022/11/15 01:04:07;;;;;;;12.50;11.53;;;8.30;99.90;;;;;;5094659;28;20202;-80
2022/11/15 01:06:33;;;;;;;12.03;10.90;;;8.30;99.90;;;;;;5094105;28;20224;-80
2022/11/15 01:08:58;;;;;;;11.20;10.27;;;8.30;99.90;;;;;;5087695;28;20236;-79
2022/11/15 01:11:24;;;;;;;11.27;10.27;;;8.30;99.90;;;;;;5073045;28;20179;-78
2022/11/15 01:13:50;;;;;;;11.77;10.93;;;8.30;99.90;;;;;;5061753;28;20198;-80
2022/11/15 01:16:18;;;;;;;12.67;11.60;;;8.30;99.90;;;;;;5100584;28;20307;-79
2022/11/15 01:18:45;;;;;;;12.67;11.50;;;8.20;99.90;;;;;;5100559;28;20184;-80
2022/11/15 01:21:14;;;;;;;12.67;11.63;;;8.20;99.90;;;;;;5098254;28;20264;-80
2022/11/15 01:23:40;;;;;;;12.50;11.57;;;8.10;99.90;;;;;;5090909;28;20209;-80
2022/11/15 01:26:09;;;;;;;10.70;9.80;;;8.10;99.90;;;;;;5056091;28;20603;-80
2022/11/15 01:28:37;;;;;;;12.83;11.73;;;8.10;99.90;;;;;;5057470;28;20211;-80
2022/11/15 01:31:06;;;;;;;11.27;10.40;;;8.00;99.90;;;;;;5056515;28;20174;-80
2022/11/15 01:33:36;;;;;;;11.07;10.17;;;8.00;99.90;;;;;;5058519;28;20289;-81
2022/11/15 01:36:07;;;;;;;11.90;11.10;;;7.90;99.90;;;;;;5056865;28;20213;-80
2022/11/15 01:38:34;;;;;;;12.07;11.00;;;7.80;99.90;;;;;;5067827;28;20196;-79
2022/11/15 01:41:00;;;;;;;12.50;11.50;;;7.70;99.90;;;;;;5078472;28;20181;-79
2022/11/15 01:43:29;;;;;;;13.20;12.00;;;7.60;99.90;;;;;;5079063;28;20301;-79
2022/11/15 01:46:24;;;;;;;12.80;11.70;;;7.60;99.90;;;;;;5075640;28;20648;-80
2022/11/15 01:48:53;;;;;;;11.93;10.87;;;7.50;99.90;;;;;;5072432;28;20217;-79
2022/11/15 01:51:21;;;;;;;13.87;12.77;;;7.40;99.90;;;;;;5097674;28;20180;-80
2022/11/15 01:53:52;;;;;;;15.20;14.10;;;7.30;99.90;;;;;;5084495;28;20234;-81
2022/11/15 01:56:27;;;;;;;22.23;20.87;;;7.30;99.90;;;;;;5056871;28;20292;-80
2022/11/15 01:58:56;;;;;;;27.03;25.20;;;7.20;99.90;;;;;;5055699;28;20772;-80
2022/11/15 02:01:24;;;;;;;26.77;25.23;;;7.10;99.90;;;;;;5056561;28;20567;-80
2022/11/15 02:03:58;;;;;;;15.97;14.97;;;7.00;99.90;;;;;;5055995;28;20216;-80
2022/11/15 02:06:24;;;;;;;12.67;10.07;;;7.00;99.90;;;;;;5054980;28;20668;-80
2022/11/15 02:08:51;;;;;;;9.27;8.57;;;6.90;99.90;;;;;;5054105;28;20224;-80
2022/11/15 02:11:17;;;;;;;12.10;10.90;;;6.80;99.90;;;;;;5054079;28;20265;-79
2022/11/15 02:13:43;;;;;;;10.63;9.93;;;6.80;99.90;;;;;;5055046;28;20671;-79
2022/11/15 02:16:21;;;;;;;11.20;10.40;;;6.70;99.90;;;;;;5054070;28;20182;-80
2022/11/15 02:19:06;;;;;;;11.33;10.50;;;6.60;99.90;;;;;;5060620;28;20174;-80
2022/11/15 02:21:40;;;;;;;11.83;10.93;;;6.50;99.90;;;;;;5077976;28;20181;-79
2022/11/15 02:24:28;;;;;;;15.40;14.40;;;6.50;99.90;;;;;;5078351;28;20205;-80
2022/11/15 02:27:08;;;;;;;10.50;9.70;;;6.50;99.90;;;;;;5072816;28;20192;-80
2022/11/15 02:29:39;;;;;;;20.17;19.00;;;6.40;99.90;;;;;;5076100;28;20563;-80
2022/11/15 02:32:22;;;;;;;20.43;19.23;;;6.50;99.90;;;;;;5071903;28;20192;-79
2022/11/15 02:35:00;;;;;;;18.93;17.57;;;6.50;99.90;;;;;;5058662;28;20240;-80
2022/11/15 02:37:37;;;;;;;14.23;13.47;;;6.50;99.90;;;;;;5054823;28;20285;-80
2022/11/15 02:40:33;;;;;;;11.37;10.47;;;6.50;99.90;;;;;;5055294;28;20693;-80
2022/11/15 02:46:12;;;;;;;8.07;7.47;;;6.50;99.90;;;;;;5062490;28;20189;-79
2022/11/15 02:48:38;;;;;;;7.67;6.97;;;6.40;99.90;;;;;;5084203;28;20216;-79
2022/11/15 02:51:05;;;;;;;7.27;6.67;;;6.20;99.90;;;;;;5089147;28;20185;-79
2022/11/15 02:53:31;;;;;;;8.20;7.50;;;6.20;99.90;;;;;;5087111;28;20274;-80
2022/11/15 02:55:57;;;;;;;14.47;13.57;;;6.20;99.90;;;;;;5078986;28;20190;-80
2022/11/15 02:59:08;;;;;;;25.93;24.33;;;6.10;99.90;;;;;;5079704;28;20230;-81
2022/11/15 03:02:12;;;;;;;17.63;16.30;;;6.20;99.90;;;;;;5078094;28;20185;-83
2022/11/15 03:04:53;;;;;;;23.43;22.20;;;6.20;99.90;;;;;;5077112;28;20228;-83
2022/11/15 03:07:24;;;;;;;23.00;21.70;;;6.10;99.90;;;;;;5079305;28;20200;-81
2022/11/15 03:10:06;;;;;;;25.07;23.57;;;6.10;99.90;;;;;;5077879;28;20318;-81
2022/11/15 03:13:16;;;;;;;22.97;21.80;;;6.10;99.90;;;;;;5078902;28;20182;-81
2022/11/15 03:15:56;;;;;;;23.57;22.07;;;6.10;99.90;;;;;;5044584;28;20600;-81
2022/11/15 03:18:33;;;;;;;50.47;47.87;;;6.10;99.90;;;;;;5075874;28;20182;-81
2022/11/15 03:21:04;;;;;;;37.77;35.77;;;6.10;99.90;;;;;;5083538;28;20235;-80
2022/11/15 03:23:31;;;;;;;31.57;29.80;;;6.10;99.90;;;;;;5093013;28;20590;-81
2022/11/15 03:25:59;;;;;;;32.40;30.47;;;6.20;99.90;;;;;;5078840;28;20664;-81
2022/11/15 03:28:33;;;;;;;39.27;37.07;;;6.20;99.90;;;;;;5077806;28;20276;-81
2022/11/15 03:31:46;;;;;;;94.73;89.97;;;6.20;99.90;;;;;;5076736;28;20235;-81
2022/11/15 03:33:50;;;;;;;43.93;41.63;;;6.20;99.90;;;;;;5077733;28;20205;-81
2022/11/15 03:36:16;;;;;;;37.50;35.33;;;6.30;99.90;;;;;;5089718;28;20193;-80
2022/11/15 03:38:44;;;;;;;19.87;18.77;;;6.30;99.90;;;;;;5079746;28;20232;-81
2022/11/15 03:41:22;;;;;;;25.63;24.07;;;6.40;99.90;;;;;;5064363;28;20178;-81
2022/11/15 03:43:59;;;;;;;51.37;48.67;;;6.30;99.90;;;;;;5076374;28;20253;-80
2022/11/15 03:46:33;;;;;;;45.00;42.70;;;6.30;99.90;;;;;;5076127;28;20191;-80
2022/11/15 03:49:28;;;;;;;97.37;92.43;;;6.30;99.90;;;;;;5073069;28;20232;-81
2022/11/15 03:51:57;;;;;;;59.83;56.83;;;6.30;99.90;;;;;;5057599;28;20190;-81
2022/11/15 03:54:23;;;;;;;40.90;38.60;;;6.30;99.90;;;;;;5058126;28;20206;-80
2022/11/15 03:56:49;;;;;;;8.03;7.53;;;6.30;99.90;;;;;;5063711;28;20217;-79
2022/11/15 03:59:14;;;;;;;9.30;8.53;;;6.30;99.90;;;;;;5079577;28;20186;-81
2022/11/15 04:01:40;;;;;;;8.20;7.60;;;6.30;99.90;;;;;;5071516;28;20197;-80
2022/11/15 04:04:06;;;;;;;8.27;7.77;;;6.20;99.90;;;;;;5064382;28;20237;-80
2022/11/15 04:06:32;;;;;;;9.33;8.73;;;6.30;99.90;;;;;;5064151;28;20193;-80
2022/11/15 04:08:58;;;;;;;8.97;7.40;;;6.30;99.90;;;;;;5077859;28;20206;-80
2022/11/15 04:11:24;;;;;;;10.53;9.63;;;6.30;99.90;;;;;;5076201;28;20729;-80
2022/11/15 04:13:49;;;;;;;35.53;33.67;;;6.30;99.90;;;;;;5075631;28;20306;-80
2022/11/15 04:16:15;;;;;;;64.97;61.63;;;6.20;99.90;;;;;;5076433;28;20189;-80
2022/11/15 04:18:41;;;;;;;27.03;25.50;;;6.20;99.90;;;;;;5065063;28;20276;-81
2022/11/15 04:26:37;;;;;;;11.97;10.50;;;6.20;99.90;;;;;;5068202;28;20280;-81
2022/11/15 04:32:07;;;;;;;18.33;17.17;;;6.20;99.90;;;;;;4994875;28;20608;-81
2022/11/15 04:34:34;;;;;;;11.37;10.33;;;6.20;99.90;;;;;;4994510;28;20210;-80
2022/11/15 04:37:11;;;;;;;18.77;17.17;;;6.10;99.90;;;;;;5023647;28;20179;-81
2022/11/15 04:39:38;;;;;;;48.10;45.23;;;6.10;99.90;;;;;;5054773;28;20182;-81
2022/11/15 04:42:03;;;;;;;38.67;35.97;;;6.20;99.90;;;;;;5054314;28;20186;-81
2022/11/15 04:44:29;;;;;;;36.07;33.63;;;6.20;99.90;;;;;;5054360;28;20228;-81
2022/11/15 04:46:55;;;;;;;27.47;25.47;;;6.30;99.90;;;;;;5054491;28;20184;-80
2022/11/15 04:49:21;;;;;;;20.03;18.53;;;6.30;99.90;;;;;;5077714;28;20214;-78
2022/11/15 04:51:47;;;;;;;19.83;18.27;;;6.30;99.90;;;;;;5077180;28;20258;-79
2022/11/15 04:54:12;;;;;;;27.73;25.87;;;6.30;99.90;;;;;;5075886;28;20201;-74
2022/11/15 04:56:38;;;;;;;29.80;27.70;;;6.40;99.90;;;;;;5057337;28;20182;-74
2022/11/15 04:59:04;;;;;;;35.63;33.17;;;6.40;99.90;;;;;;5053026;28;20193;-74
2022/11/15 05:01:30;;;;;;;33.17;30.67;;;6.40;99.90;;;;;;5053085;28;20205;-74
2022/11/15 05:06:40;;;;;;;20.70;19.33;;;6.40;99.90;;;;;;5059007;28;20181;-73
2022/11/15 05:09:06;;;;;;;10.57;9.77;;;6.40;99.90;;;;;;5062849;28;20547;-74
2022/11/15 05:11:32;;;;;;;18.00;16.80;;;6.40;99.90;;;;;;5072083;28;20213;-74
2022/11/15 05:13:57;;;;;;;19.27;18.07;;;6.40;99.90;;;;;;5089798;28;20199;-74
2022/11/15 05:16:23;;;;;;;11.37;10.47;;;6.40;99.90;;;;;;5090819;28;20290;-74
2022/11/15 05:18:53;;;;;;;32.27;30.53;;;6.40;99.90;;;;;;5091591;28;20586;-74
2022/11/15 05:21:20;;;;;;;41.27;39.07;;;6.30;99.90;;;;;;5090519;28;20256;-74
2022/11/15 05:23:46;;;;;;;35.10;33.13;;;6.20;99.90;;;;;;5090567;28;20209;-74
2022/11/15 05:26:12;;;;;;;58.13;54.77;;;6.20;99.90;;;;;;5072055;28;20182;-74
2022/11/15 05:28:38;;;;;;;67.73;64.27;;;6.20;99.90;;;;;;5071218;28;20308;-74
2022/11/15 05:31:07;;;;;;;31.13;29.40;;;6.20;99.90;;;;;;5071405;28;20182;-74
2022/11/15 05:33:34;;;;;;;12.30;11.17;;;6.10;99.90;;;;;;5071584;28;20251;-75
2022/11/15 05:36:15;;;;;;;11.73;10.90;;;6.20;99.90;;;;;;5071905;28;20184;-72
2022/11/15 05:38:41;;;;;;;33.20;30.50;;;6.20;99.90;;;;;;5069639;28;20181;-72
2022/11/15 05:41:07;;;;;;;47.87;45.13;;;6.30;99.90;;;;;;5070587;28;20268;-72
2022/11/15 05:43:35;;;;;;;50.23;47.50;;;6.20;99.90;;;;;;5070806;28;20682;-73
2022/11/15 05:46:04;;;;;;;56.30;52.90;;;6.30;99.90;;;;;;5071186;28;20185;-71
2022/11/15 05:48:30;;;;;;;59.87;56.23;;;6.30;99.90;;;;;;5069721;28;20540;-71
2022/11/15 05:50:56;;;;;;;46.07;43.30;;;6.30;99.90;;;;;;5071519;28;20186;-71
2022/11/15 05:53:24;;;;;;;50.13;46.87;;;6.30;99.90;;;;;;5053942;28;20571;-75
2022/11/15 05:55:51;;;;;;;42.50;39.80;;;6.20;99.90;;;;;;5051426;28;20179;-74
2022/11/15 05:58:17;;;;;;;41.67;39.07;;;6.30;99.90;;;;;;5050985;28;20182;-74
2022/11/15 06:00:43;;;;;;;43.03;40.07;;;6.30;99.90;;;;;;5049057;28;20178;-74
2022/11/15 06:03:09;;;;;;;17.33;11.83;;;6.20;99.90;;;;;;5050188;28;20211;-75
2022/11/15 06:05:34;;;;;;;13.07;11.97;;;6.20;99.90;;;;;;5051615;28;20228;-74
2022/11/15 06:08:00;;;;;;;22.77;20.90;;;6.20;99.90;;;;;;5049889;28;20182;-74
2022/11/15 06:10:26;;;;;;;31.47;29.30;;;6.10;99.90;;;;;;5051425;28;20738;-74
2022/11/15 06:13:03;;;;;;;18.70;16.83;;;6.10;99.90;;;;;;5051314;28;20190;-74
2022/11/15 06:15:29;;;;;;;12.87;10.33;;;6.00;99.90;;;;;;5051381;28;20728;-74
2022/11/15 06:17:58;;;;;;;14.73;13.37;;;6.00;99.90;;;;;;5050724;28;20266;-75
2022/11/15 06:20:25;;;;;;;18.67;16.97;;;6.00;99.90;;;;;;5051110;28;20190;-74
2022/11/15 06:22:50;;;;;;;17.23;15.77;;;6.00;99.90;;;;;;5051040;28;20198;-74
2022/11/15 06:25:16;;;;;;;16.17;14.90;;;6.00;99.90;;;;;;5050947;28;20239;-75
2022/11/15 06:27:42;;;;;;;17.53;16.20;;;6.00;99.90;;;;;;5050782;28;20186;-75
2022/11/15 06:30:08;;;;;;;13.20;11.90;;;6.00;99.90;;;;;;5049700;28;20218;-74
2022/11/15 06:32:34;;;;;;;15.47;14.13;;;5.90;99.90;;;;;;5051229;28;20269;-74
2022/11/15 06:35:00;;;;;;;12.70;11.53;;;5.90;99.90;;;;;;5050043;28;20612;-74
2022/11/15 06:37:25;;;;;;;15.53;14.23;;;5.90;99.90;;;;;;5050757;28;20179;-74
2022/11/15 06:39:51;;;;;;;12.60;11.33;;;5.80;99.90;;;;;;5050882;28;20189;-74
2022/11/15 06:42:17;;;;;;;11.87;10.77;;;5.80;99.90;;;;;;5049619;28;20190;-74
2022/11/15 06:44:43;;;;;;;10.30;9.40;;;5.70;99.90;;;;;;5050723;28;20214;-74
2022/11/15 06:47:08;;;;;;;10.27;9.47;;;5.70;99.90;;;;;;5050624;28;20620;-74
2022/11/15 06:49:34;;;;;;;14.40;13.40;;;5.70;99.90;;;;;;5053456;28;20304;-75
2022/11/15 06:52:00;;;;;;;32.37;30.23;;;5.60;99.90;;;;;;5052892;28;20201;-74
2022/11/15 06:54:26;;;;;;;36.23;33.93;;;5.70;99.90;;;;;;5049942;28;20559;-75
2022/11/15 06:56:51;;;;;;;24.30;22.60;;;5.70;99.90;;;;;;5050570;28;20213;-75
2022/11/15 06:59:18;;;;;;;21.37;17.47;;;5.70;99.90;;;;;;5049846;28;20251;-74
2022/11/15 07:01:43;;;;;;;18.93;17.50;;;5.80;99.90;;;;;;5051257;28;20190;-75
2022/11/15 07:04:09;;;;;;;17.17;14.43;;;5.80;99.90;;;;;;5049723;28;20233;-74
2022/11/15 07:06:35;;;;;;;17.53;16.20;;;5.70;99.90;;;;;;5049679;28;20192;-75
2022/11/15 07:09:03;;;;;;;19.67;17.97;;;5.80;99.90;;;;;;5049155;28;20206;-74
2022/11/15 07:11:28;;;;;;;14.93;13.40;;;5.90;99.90;;;;;;5050903;28;20189;-74
2022/11/15 07:13:54;;;;;;;17.10;15.67;;;6.00;99.90;;;;;;5050724;28;20571;-74
2022/11/15 07:16:20;;;;;;;17.03;15.50;;;6.00;99.90;;;;;;5049637;28;20175;-74
2022/11/15 07:18:46;;;;;;;16.57;15.30;;;6.10;99.90;;;;;;5050360;28;20221;-74
2022/11/15 07:21:12;;;;;;;16.77;15.63;;;6.20;99.90;;;;;;5050782;28;20182;-74
2022/11/15 07:23:39;;;;;;;23.33;21.70;;;6.30;99.90;;;;;;5049441;28;20234;-74
2022/11/15 07:26:06;;;;;;;199.30;189.10;;;6.40;99.90;;;;;;5049361;28;20204;-74
2022/11/15 07:28:31;;;;;;;199.57;189.33;;;6.70;99.90;;;;;;5050216;28;20187;-74
2022/11/15 07:30:57;;;;;;;61.00;23.30;;;6.90;99.90;;;;;;5050594;28;20547;-74
2022/11/15 07:33:23;;;;;;;34.57;31.87;;;7.10;99.90;;;;;;5051054;28;20206;-75
2022/11/15 07:35:49;;;;;;;25.70;23.77;;;7.40;99.90;;;;;;5049376;28;20167;-74
2022/11/15 07:38:19;;;;;;;11.97;11.07;;;7.60;99.90;;;;;;5048938;28;20214;-74
2022/11/15 07:40:46;;;;;;;14.87;9.47;;;7.90;99.90;;;;;;5050726;28;20635;-74
2022/11/15 07:43:11;;;;;;;12.43;11.30;;;8.30;99.90;;;;;;5051106;28;20214;-75
2022/11/15 07:45:42;;;;;;;23.90;22.30;;;8.50;99.90;;;;;;5054424;28;20182;-76
2022/11/15 07:48:08;;;;;;;24.47;22.77;;;8.70;99.90;;;;;;5052879;28;20182;-74
2022/11/15 07:50:34;;;;;;;13.97;12.37;;;8.70;99.90;;;;;;5054131;28;20209;-74
2022/11/15 07:53:00;;;;;;;17.00;11.37;;;8.70;99.90;;;;;;5054172;28;20285;-74
2022/11/15 07:55:29;;;;;;;16.87;15.20;;;8.70;99.90;;;;;;5054671;28;20277;-74
2022/11/15 07:58:03;;;;;;;23.37;21.40;;;8.90;99.90;;;;;;5053929;28;20261;-74
2022/11/15 08:00:29;;;;;;;12.47;11.37;;;9.20;99.90;;;;;;5053975;28;20190;-73
2022/11/15 08:03:10;;;;;;;11.47;10.30;;;9.30;99.90;;;;;;5053824;28;20202;-74
2022/11/15 08:05:38;;;;;;;12.93;11.67;;;9.50;99.90;;;;;;5055238;28;20607;-73
2022/11/15 08:08:05;;;;;;;13.07;11.87;;;9.80;99.90;;;;;;5055980;28;20261;-74
2022/11/15 08:10:31;;;;;;;13.50;12.27;;;10.10;99.90;;;;;;5055171;28;20694;-74
2022/11/15 08:13:02;;;;;;;27.10;25.20;;;10.30;99.90;;;;;;5053990;28;20331;-74
2022/11/15 08:15:29;;;;;;;14.53;13.23;;;10.80;99.90;;;;;;5053632;28;20182;-74
2022/11/15 08:17:56;;;;;;;27.67;25.67;;;11.40;99.90;;;;;;5053105;28;20182;-74
2022/11/15 08:20:22;;;;;;;17.00;15.53;;;11.90;99.90;;;;;;5052354;28;20203;-74
2022/11/15 08:22:48;;;;;;;15.63;14.50;;;12.40;99.90;;;;;;5053705;28;20198;-74
2022/11/15 08:25:14;;;;;;;18.10;16.70;;;12.70;99.90;;;;;;5052254;28;20186;-74
2022/11/15 08:27:40;;;;;;;16.93;15.50;;;13.10;99.90;;;;;;5053060;28;20209;-74
2022/11/15 08:30:06;;;;;;;13.67;12.70;;;13.40;99.90;;;;;;5052373;28;20237;-74
2022/11/15 08:32:32;;;;;;;9.47;8.43;;;13.70;99.90;;;;;;5051951;28;20770;-74
2022/11/15 08:34:58;;;;;;;9.43;8.70;;;13.90;99.90;;;;;;5052058;28;20265;-75
2022/11/15 08:37:23;;;;;;;10.20;9.20;;;14.30;99.90;;;;;;5052978;28;20185;-74
2022/11/15 08:39:49;;;;;;;12.33;11.07;;;14.70;99.90;;;;;;5053454;28;20216;-74
2022/11/15 08:42:16;;;;;;;14.70;13.30;;;14.60;99.90;;;;;;5053638;28;20186;-74
2022/11/15 08:44:42;;;;;;;13.03;11.93;;;14.50;99.90;;;;;;5052520;28;20272;-75
2022/11/15 08:47:11;;;;;;;13.83;12.73;;;14.00;99.90;;;;;;5052210;28;20171;-74
2022/11/15 08:49:36;;;;;;;17.47;15.87;;;13.90;99.90;;;;;;5052870;28;20214;-75
2022/11/15 08:52:02;;;;;;;16.63;14.90;;;13.60;99.90;;;;;;5051910;28;20173;-74
2022/11/15 08:54:28;;;;;;;13.43;11.97;;;13.40;99.90;;;;;;5052240;28;20199;-74
2022/11/15 08:56:54;;;;;;;10.83;9.73;;;13.20;99.90;;;;;;5051005;28;20182;-74
2022/11/15 08:59:19;;;;;;;14.83;13.60;;;12.90;99.90;;;;;;5053015;28;20181;-74
2022/11/15 09:01:45;;;;;;;24.93;23.33;;;12.50;99.90;;;;;;5051543;28;20578;-73
2022/11/15 09:04:11;;;;;;;22.70;21.10;;;12.30;99.90;;;;;;5052718;28;20252;-73
2022/11/15 09:06:36;;;;;;;24.67;22.07;;;12.20;99.90;;;;;;5056491;28;20186;-73
2022/11/15 09:09:03;;;;;;;56.90;40.13;;;12.20;99.90;;;;;;5055150;28;20217;-73
2022/11/15 09:11:29;;;;;;;14.83;12.07;;;12.20;99.90;;;;;;5052092;28;20182;-73
2022/11/15 09:13:55;;;;;;;15.23;11.50;;;12.20;99.90;;;;;;5051257;28;20216;-74
2022/11/15 09:16:20;;;;;;;28.83;18.60;;;12.20;99.90;;;;;;5052669;28;20177;-73
2022/11/15 09:18:46;;;;;;;21.03;15.03;;;12.30;99.90;;;;;;5052351;28;20186;-73
2022/11/15 09:21:13;;;;;;;15.57;13.03;;;12.60;99.90;;;;;;5051226;28;20297;-74
2022/11/15 09:23:38;;;;;;;13.97;12.67;;;13.30;99.90;;;;;;5051321;28;20212;-73
2022/11/15 09:26:05;;;;;;;23.53;21.73;;;14.00;99.90;;;;;;5051344;28;20609;-74
2022/11/15 09:28:32;;;;;;;22.80;21.30;;;14.40;99.90;;;;;;5050606;28;20646;-73
2022/11/15 09:31:04;;;;;;;15.87;14.70;;;14.60;99.90;;;;;;5051040;28;20193;-73
2022/11/15 09:33:30;;;;;;;14.87;13.80;;;15.20;99.90;;;;;;5052181;28;20225;-74
2022/11/15 09:36:07;;;;;;;12.03;11.00;;;15.20;99.90;;;;;;5052498;28;20212;-74
2022/11/15 09:38:34;;;;;;;12.47;11.37;;;15.10;99.90;;;;;;5050558;28;20190;-74
2022/11/15 09:41:12;;;;;;;12.70;11.50;;;15.30;99.90;;;;;;5050902;28;20434;-73
2022/11/15 09:44:16;;;;;;;13.50;11.60;;;15.30;99.90;;;;;;5051835;28;20210;-73
2022/11/15 09:47:08;;;;;;;10.30;9.10;;;15.40;99.90;;;;;;5050826;28;20182;-73
2022/11/15 09:49:34;;;;;;;8.43;7.73;;;15.80;99.90;;;;;;5051846;28;20259;-73
2022/11/15 09:52:00;;;;;;;10.63;8.17;;;15.60;99.90;;;;;;5052069;28;20275;-74
2022/11/15 09:54:35;;;;;;;9.10;7.83;;;15.40;99.90;;;;;;5051606;28;20202;-73
2022/11/15 09:57:20;;;;;;;8.13;7.33;;;15.20;99.90;;;;;;5050376;28;20185;-74
2022/11/15 10:00:13;;;;;;;7.20;6.70;;;14.80;99.90;;;;;;5051671;28;20657;-73
2022/11/15 10:03:25;;;;;;;8.77;7.10;;;14.70;99.90;;;;;;5050393;28;20190;-73
2022/11/15 10:05:55;;;;;;;7.07;6.47;;;15.30;99.90;;;;;;4989948;28;20560;-74
2022/11/15 10:08:26;;;;;;;9.03;7.13;;;15.60;99.90;;;;;;4989683;28;20184;-74
2022/11/15 10:10:59;;;;;;;8.53;7.03;;;15.60;99.90;;;;;;5025055;28;20232;-74
2022/11/15 10:13:29;;;;;;;7.83;7.13;;;16.00;99.90;;;;;;5050183;28;20686;-74
2022/11/15 10:16:17;;;;;;;15.30;13.80;;;16.50;99.90;;;;;;5051218;28;20225;-74
2022/11/15 10:18:58;;;;;;;16.67;15.67;;;17.40;99.90;;;;;;5049722;28;20186;-74
2022/11/15 10:21:37;;;;;;;12.30;11.20;;;17.80;99.90;;;;;;5050185;28;20190;-74
2022/11/15 10:24:11;;;;;;;26.33;24.77;;;18.00;99.90;;;;;;5049944;28;20206;-74
2022/11/15 10:26:37;;;;;;;38.93;36.83;;;18.20;99.90;;;;;;5051056;28;20194;-74
2022/11/15 10:29:03;;;;;;;38.30;36.20;;;17.80;99.90;;;;;;5049758;28;20227;-74
2022/11/15 10:31:29;;;;;;;36.77;34.33;;;18.00;99.90;;;;;;5051584;28;20524;-74
2022/11/15 10:34:14;;;;;;;39.37;37.17;;;17.70;99.90;;;;;;5050856;28;20194;-74
2022/11/15 10:36:54;;;;;;;39.23;37.10;;;17.90;99.90;;;;;;5050888;28;20182;-74
2022/11/15 10:39:19;;;;;;;27.17;25.47;;;17.80;99.90;;;;;;5050810;28;20564;-74
2022/11/15 10:41:45;;;;;;;30.23;28.57;;;17.70;99.90;;;;;;5050879;28;20178;-74
2022/11/15 10:44:20;;;;;;;22.10;20.63;;;17.80;99.90;;;;;;5050846;28;20214;-74
2022/11/15 10:46:55;;;;;;;21.37;19.80;;;17.70;99.90;;;;;;5049046;28;20224;-74
2022/11/15 10:49:27;;;;;;;16.50;15.60;;;18.10;99.90;;;;;;5050895;28;20218;-74
2022/11/15 10:51:56;;;;;;;11.03;10.17;;;18.30;99.90;;;;;;5049825;28;20178;-74
2022/11/15 10:54:49;;;;;;;8.77;8.07;;;18.50;99.90;;;;;;5050698;28;20694;-74
2022/11/15 10:57:18;;;;;;;7.50;7.00;;;19.20;99.90;;;;;;5047849;28;20739;-74
2022/11/15 11:00:19;;;;;;;7.40;6.73;;;19.60;99.90;;;;;;5051083;28;20190;-74
2022/11/15 11:02:59;;;;;;;8.17;7.37;;;19.20;99.90;;;;;;5052090;28;20260;-74
2022/11/15 11:05:34;;;;;;;7.27;6.00;;;19.30;99.90;;;;;;5052359;28;20189;-74
2022/11/15 11:08:05;;;;;;;7.80;7.00;;;19.90;99.90;;;;;;5051519;28;20482;-74
2022/11/15 11:10:33;;;;;;;9.83;8.87;;;20.10;99.90;;;;;;5055281;28;20241;-74
2022/11/15 11:13:22;;;;;;;10.03;9.33;;;19.50;99.90;;;;;;5052730;28;20191;-74
2022/11/15 11:15:55;;;;;;;9.60;8.33;;;19.20;99.90;;;;;;5050773;28;20269;-74
2022/11/15 11:19:04;;;;;;;9.70;8.83;;;18.70;99.90;;;;;;5051524;28;20585;-74
2022/11/15 11:21:46;;;;;;;8.80;7.70;;;18.70;99.90;;;;;;5031195;28;20356;-74
2022/11/15 11:24:33;;;;;;;8.47;7.73;;;18.50;99.90;;;;;;5053327;28;20252;-74
2022/11/15 11:27:14;;;;;;;10.97;10.03;;;18.40;99.90;;;;;;5053096;28;20601;-74
2022/11/15 11:29:58;;;;;;;8.80;8.00;;;18.60;99.90;;;;;;5054276;28;20210;-74
2022/11/15 11:32:51;;;;;;;9.33;8.53;;;18.20;99.90;;;;;;5054508;28;20186;-74
2022/11/15 11:35:52;;;;;;;9.47;8.60;;;18.00;99.90;;;;;;5054386;28;20185;-74
2022/11/15 11:38:21;;;;;;;9.30;8.40;;;17.60;99.90;;;;;;5022670;28;20200;-73
2022/11/15 11:40:59;;;;;;;9.33;8.53;;;17.50;99.90;;;;;;5053097;28;20437;-73
2022/11/15 11:43:50;;;;;;;7.40;6.80;;;17.40;99.90;;;;;;5086502;22;20228;-69
2022/11/15 11:46:40;;;;;;;7.90;7.17;;;17.20;99.90;;;;;;5093769;28;20217;-70
2022/11/15 11:49:14;;;;;;;12.37;11.47;;;17.20;99.90;;;;;;5093768;28;20270;-70
2022/11/15 11:52:02;;;;;;;8.77;8.07;;;17.20;99.90;;;;;;5093195;28;20267;-70
2022/11/15 11:54:59;;;;;;;8.73;8.13;;;17.50;99.90;;;;;;5094161;28;20247;-70
2022/11/15 11:57:43;;;;;;;10.70;9.80;;;17.50;99.90;;;;;;5093993;28;20272;-70
2022/11/15 12:00:20;;;;;;;9.77;9.07;;;17.40;99.90;;;;;;5094262;28;20189;-70
2022/11/15 12:03:02;;;;;;;8.13;7.43;;;17.70;99.90;;;;;;5093129;28;20237;-69
2022/11/15 12:05:37;;;;;;;8.17;7.47;;;17.70;99.90;;;;;;5093853;28;20180;-70
2022/11/15 12:08:25;;;;;;;8.60;8.00;;;17.70;99.90;;;;;;5093516;28;20184;-70
2022/11/15 12:11:00;;;;;;;9.00;8.20;;;17.80;99.90;;;;;;5093907;28;20223;-70
2022/11/15 12:13:33;;;;;;;9.20;8.50;;;17.80;99.90;;;;;;5093897;28;20219;-70
2022/11/15 12:16:23;;;;;;;11.00;9.77;;;18.10;99.90;;;;;;5093682;28;20176;-69
2022/11/15 12:18:53;;;;;;;12.50;11.30;;;18.70;99.90;;;;;;5093570;28;20185;-70
2022/11/15 12:21:33;;;;;;;14.47;10.83;;;18.60;99.90;;;;;;5093675;28;20181;-70
2022/11/15 12:24:06;;;;;;;13.20;11.70;;;18.50;99.90;;;;;;5093877;28;20201;-70
2022/11/15 12:26:41;;;;;;;12.40;9.40;;;18.40;99.90;;;;;;5093518;28;20177;-70
2022/11/15 12:29:35;;;;;;;11.00;10.23;;;18.90;99.90;;;;;;5092908;28;20204;-69
2022/11/15 12:32:03;;;;;;;11.17;10.20;;;19.00;99.90;;;;;;5092990;28;20224;-70
2022/11/15 12:34:40;;;;;;;12.00;11.20;;;19.10;99.90;;;;;;5093257;28;20692;-69
2022/11/15 12:37:38;;;;;;;13.40;12.43;;;19.30;99.90;;;;;;5093047;28;20217;-69
2022/11/15 12:40:31;;;;;;;12.43;11.23;;;19.30;99.90;;;;;;5070274;28;20242;-69
2022/11/15 12:43:11;;;;;;;9.57;8.77;;;18.90;99.90;;;;;;5092937;28;20527;-70
2022/11/15 12:45:39;;;;;;;8.43;7.60;;;18.40;99.90;;;;;;5093138;28;20180;-69
2022/11/15 12:48:17;;;;;;;8.13;7.63;;;18.00;99.90;;;;;;5092796;28;20173;-70
2022/11/15 12:50:53;;;;;;;7.37;6.77;;;17.60;99.90;;;;;;5092970;28;20729;-70
2022/11/15 12:53:24;;;;;;;7.37;6.77;;;17.50;99.90;;;;;;5093014;28;20581;-70
2022/11/15 12:56:16;;;;;;;14.40;13.30;;;17.30;99.90;;;;;;5093022;28;20180;-69
2022/11/15 12:58:56;;;;;;;25.33;23.60;;;17.10;99.90;;;;;;5088433;28;20185;-70
2022/11/15 13:01:33;;;;;;;34.43;32.27;;;16.90;99.90;;;;;;5093129;28;20341;-69
2022/11/15 13:04:18;;;;;;;19.47;18.27;;;16.80;99.90;;;;;;5092856;28;20629;-70
2022/11/15 13:06:49;;;;;;;17.17;16.07;;;16.70;99.90;;;;;;5092572;28;20198;-70
2022/11/15 13:09:51;;;;;;;13.00;11.90;;;16.80;99.90;;;;;;5092613;28;20217;-70
2022/11/15 13:12:26;;;;;;;12.10;11.00;;;16.90;99.90;;;;;;5091577;28;20742;-70
2022/11/15 13:15:12;;;;;;;12.63;11.53;;;16.90;99.90;;;;;;5106998;28;20242;-70